sensor_id;sensor_type;location;lat;lon;timestamp;temperature;humidity
9820;DHT22;4949;48.482;9.206;2023-08-08T00:00:07;14.10;81.50
9820;DHT22;4949;48.482;9.206;2023-08-08T00:05:09;14.00;82.90
9820;DHT22;4949;48.482;9.206;2023-08-08T00:10:10;14.00;82.50
9820;DHT22;4949;48.482;9.206;2023-08-08T00:15:10;13.90;82.70
9820;DHT22;4949;48.482;9.206;2023-08-08T00:20:14;14.00;83.60
9820;DHT22;4949;48.482;9.206;2023-08-08T00:25:14;13.70;84.00
9820;DHT22;4949;48.482;9.206;2023-08-08T00:30:17;13.80;84.20
9820;DHT22;4949;48.482;9.206;2023-08-08T00:35:18;13.70;84.50
9820;DHT22;4949;48.482;9.206;2023-08-08T00:40:21;13.70;84.80
9820;DHT22;4949;48.482;9.206;2023-08-08T00:45:22;13.70;85.30
9820;DHT22;4949;48.482;9.206;2023-08-08T00:50:23;13.60;86.10
9820;DHT22;4949;48.482;9.206;2023-08-08T00:55:26;13.60;85.20
9820;DHT22;4949;48.482;9.206;2023-08-08T01:00:27;13.70;85.30
9820;DHT22;4949;48.482;9.206;2023-08-08T01:05:37;13.70;85.60
9820;DHT22;4949;48.482;9.206;2023-08-08T01:10:41;13.70;85.00
9820;DHT22;4949;48.482;9.206;2023-08-08T01:15:43;13.70;85.10
9820;DHT22;4949;48.482;9.206;2023-08-08T01:20:51;13.70;85.30
9820;DHT22;4949;48.482;9.206;2023-08-08T01:25:53;13.70;86.00
9820;DHT22;4949;48.482;9.206;2023-08-08T01:30:54;13.70;85.80
9820;DHT22;4949;48.482;9.206;2023-08-08T01:36:02;13.70;86.40
9820;DHT22;4949;48.482;9.206;2023-08-08T01:41:08;13.70;86.20
9820;DHT22;4949;48.482;9.206;2023-08-08T01:46:09;13.70;86.90
9820;DHT22;4949;48.482;9.206;2023-08-08T01:51:11;13.70;87.10
9820;DHT22;4949;48.482;9.206;2023-08-08T01:56:11;13.70;87.40
9820;DHT22;4949;48.482;9.206;2023-08-08T02:01:16;13.60;87.70
9820;DHT22;4949;48.482;9.206;2023-08-08T02:06:16;13.60;87.60
9820;DHT22;4949;48.482;9.206;2023-08-08T02:11:19;13.60;87.60
9820;DHT22;4949;48.482;9.206;2023-08-08T02:16:22;13.50;87.80
9820;DHT22;4949;48.482;9.206;2023-08-08T02:21:25;13.60;88.00
9820;DHT22;4949;48.482;9.206;2023-08-08T02:26:26;13.50;88.00
9820;DHT22;4949;48.482;9.206;2023-08-08T02:31:31;13.50;87.70
9820;DHT22;4949;48.482;9.206;2023-08-08T02:36:34;13.50;87.90
9820;DHT22;4949;48.482;9.206;2023-08-08T02:41:38;13.60;88.10
9820;DHT22;4949;48.482;9.206;2023-08-08T02:46:41;13.50;87.50
9820;DHT22;4949;48.482;9.206;2023-08-08T02:51:42;13.50;87.50
9820;DHT22;4949;48.482;9.206;2023-08-08T02:56:42;13.50;87.80
9820;DHT22;4949;48.482;9.206;2023-08-08T03:01:45;13.50;87.60
9820;DHT22;4949;48.482;9.206;2023-08-08T03:06:47;13.50;87.90
9820;DHT22;4949;48.482;9.206;2023-08-08T03:11:48;13.60;87.30
9820;DHT22;4949;48.482;9.206;2023-08-08T03:16:49;13.60;87.70
9820;DHT22;4949;48.482;9.206;2023-08-08T03:21:52;13.50;87.90
9820;DHT22;4949;48.482;9.206;2023-08-08T03:26:53;13.50;88.30
9820;DHT22;4949;48.482;9.206;2023-08-08T03:31:54;13.40;88.30
9820;DHT22;4949;48.482;9.206;2023-08-08T03:36:55;13.40;88.50
9820;DHT22;4949;48.482;9.206;2023-08-08T03:41:56;13.40;88.30
9820;DHT22;4949;48.482;9.206;2023-08-08T03:46:59;13.40;88.30
9820;DHT22;4949;48.482;9.206;2023-08-08T03:52:00;13.40;88.80
9820;DHT22;4949;48.482;9.206;2023-08-08T03:57:03;13.40;88.20
9820;DHT22;4949;48.482;9.206;2023-08-08T04:02:04;13.40;88.10
9820;DHT22;4949;48.482;9.206;2023-08-08T04:07:04;13.40;88.20
9820;DHT22;4949;48.482;9.206;2023-08-08T04:12:10;13.40;88.90
9820;DHT22;4949;48.482;9.206;2023-08-08T04:17:11;13.40;88.60
9820;DHT22;4949;48.482;9.206;2023-08-08T04:22:11;13.40;88.60
9820;DHT22;4949;48.482;9.206;2023-08-08T04:27:12;13.50;88.60
9820;DHT22;4949;48.482;9.206;2023-08-08T04:32:13;13.50;88.60
9820;DHT22;4949;48.482;9.206;2023-08-08T04:37:14;13.50;88.60
9820;DHT22;4949;48.482;9.206;2023-08-08T04:42:14;13.50;89.70
9820;DHT22;4949;48.482;9.206;2023-08-08T04:47:15;13.50;89.10
9820;DHT22;4949;48.482;9.206;2023-08-08T04:52:16;13.40;89.80
9820;DHT22;4949;48.482;9.206;2023-08-08T04:57:19;13.50;90.00
9820;DHT22;4949;48.482;9.206;2023-08-08T05:02:19;13.40;89.80
9820;DHT22;4949;48.482;9.206;2023-08-08T05:07:20;13.50;89.90
9820;DHT22;4949;48.482;9.206;2023-08-08T05:12:21;13.40;89.70
9820;DHT22;4949;48.482;9.206;2023-08-08T05:17:22;13.50;89.90
9820;DHT22;4949;48.482;9.206;2023-08-08T05:22:22;13.50;89.60
9820;DHT22;4949;48.482;9.206;2023-08-08T05:27:23;13.60;89.90
9820;DHT22;4949;48.482;9.206;2023-08-08T05:32:26;13.60;89.80
9820;DHT22;4949;48.482;9.206;2023-08-08T05:37:32;13.60;90.10
9820;DHT22;4949;48.482;9.206;2023-08-08T05:42:32;13.70;90.20
9820;DHT22;4949;48.482;9.206;2023-08-08T05:47:35;13.70;90.10
9820;DHT22;4949;48.482;9.206;2023-08-08T05:52:36;13.70;89.80
9820;DHT22;4949;48.482;9.206;2023-08-08T05:57:37;13.80;89.80
9820;DHT22;4949;48.482;9.206;2023-08-08T06:02:40;13.90;88.30
9820;DHT22;4949;48.482;9.206;2023-08-08T06:07:44;14.30;88.60
9820;DHT22;4949;48.482;9.206;2023-08-08T06:12:51;14.70;86.50
9820;DHT22;4949;48.482;9.206;2023-08-08T06:17:52;15.10;84.50
9820;DHT22;4949;48.482;9.206;2023-08-08T06:22:53;15.30;81.90
9820;DHT22;4949;48.482;9.206;2023-08-08T06:27:56;15.60;81.90
9820;DHT22;4949;48.482;9.206;2023-08-08T06:32:56;15.60;80.30
9820;DHT22;4949;48.482;9.206;2023-08-08T06:37:57;15.70;80.80
9820;DHT22;4949;48.482;9.206;2023-08-08T06:43:00;15.90;78.70
9820;DHT22;4949;48.482;9.206;2023-08-08T06:48:01;15.80;78.80
9820;DHT22;4949;48.482;9.206;2023-08-08T06:53:05;15.70;79.20
9820;DHT22;4949;48.482;9.206;2023-08-08T06:58:06;15.80;79.80
9820;DHT22;4949;48.482;9.206;2023-08-08T07:03:09;15.80;80.00
9820;DHT22;4949;48.482;9.206;2023-08-08T07:08:10;15.80;79.50
9820;DHT22;4949;48.482;9.206;2023-08-08T07:13:12;16.00;77.20
9820;DHT22;4949;48.482;9.206;2023-08-08T07:18:13;16.00;76.10
9820;DHT22;4949;48.482;9.206;2023-08-08T07:23:13;16.10;75.60
9820;DHT22;4949;48.482;9.206;2023-08-08T07:28:14;16.30;74.20
9820;DHT22;4949;48.482;9.206;2023-08-08T07:33:15;16.30;74.40
9820;DHT22;4949;48.482;9.206;2023-08-08T07:38:15;16.50;73.60
9820;DHT22;4949;48.482;9.206;2023-08-08T07:43:18;16.60;73.10
9820;DHT22;4949;48.482;9.206;2023-08-08T07:48:22;16.80;72.60
9820;DHT22;4949;48.482;9.206;2023-08-08T07:53:25;16.90;72.50
9820;DHT22;4949;48.482;9.206;2023-08-08T07:58:25;17.00;71.90
9820;DHT22;4949;48.482;9.206;2023-08-08T08:03:28;17.10;70.10
9820;DHT22;4949;48.482;9.206;2023-08-08T08:08:29;17.30;69.90
9820;DHT22;4949;48.482;9.206;2023-08-08T08:13:30;17.40;68.60
9820;DHT22;4949;48.482;9.206;2023-08-08T08:18:31;17.40;67.80
9820;DHT22;4949;48.482;9.206;2023-08-08T08:23:34;17.40;69.10
9820;DHT22;4949;48.482;9.206;2023-08-08T08:28:35;17.50;68.30
9820;DHT22;4949;48.482;9.206;2023-08-08T08:33:42;17.60;68.60
9820;DHT22;4949;48.482;9.206;2023-08-08T08:38:45;17.80;69.10
9820;DHT22;4949;48.482;9.206;2023-08-08T08:43:48;17.70;66.50
9820;DHT22;4949;48.482;9.206;2023-08-08T08:48:56;17.80;66.10
9820;DHT22;4949;48.482;9.206;2023-08-08T08:54:03;17.70;65.60
9820;DHT22;4949;48.482;9.206;2023-08-08T08:59:05;17.70;66.40
9820;DHT22;4949;48.482;9.206;2023-08-08T09:04:07;17.80;66.50
9820;DHT22;4949;48.482;9.206;2023-08-08T09:09:09;17.90;66.70
9820;DHT22;4949;48.482;9.206;2023-08-08T09:14:21;18.00;67.20
9820;DHT22;4949;48.482;9.206;2023-08-08T09:19:27;18.20;66.10
9820;DHT22;4949;48.482;9.206;2023-08-08T09:24:28;18.30;64.70
9820;DHT22;4949;48.482;9.206;2023-08-08T09:29:29;18.40;65.40
9820;DHT22;4949;48.482;9.206;2023-08-08T09:34:30;18.40;63.10
9820;DHT22;4949;48.482;9.206;2023-08-08T09:39:38;18.50;62.90
9820;DHT22;4949;48.482;9.206;2023-08-08T09:44:38;18.60;63.50
9820;DHT22;4949;48.482;9.206;2023-08-08T09:49:39;18.80;62.90
9820;DHT22;4949;48.482;9.206;2023-08-08T09:54:41;18.90;61.10
9820;DHT22;4949;48.482;9.206;2023-08-08T09:59:45;18.90;59.50
9820;DHT22;4949;48.482;9.206;2023-08-08T10:04:51;19.00;59.50
9820;DHT22;4949;48.482;9.206;2023-08-08T10:09:53;19.10;59.60
9820;DHT22;4949;48.482;9.206;2023-08-08T10:14:56;19.40;59.70
9820;DHT22;4949;48.482;9.206;2023-08-08T10:19:57;19.50;60.10
9820;DHT22;4949;48.482;9.206;2023-08-08T10:25:09;19.60;59.10
9820;DHT22;4949;48.482;9.206;2023-08-08T10:30:18;19.70;57.60
9820;DHT22;4949;48.482;9.206;2023-08-08T10:35:19;19.70;57.00
9820;DHT22;4949;48.482;9.206;2023-08-08T10:40:20;19.70;55.80
9820;DHT22;4949;48.482;9.206;2023-08-08T10:45:29;19.80;56.90
9820;DHT22;4949;48.482;9.206;2023-08-08T10:50:30;19.90;56.80
9820;DHT22;4949;48.482;9.206;2023-08-08T10:55:33;20.10;56.20
9820;DHT22;4949;48.482;9.206;2023-08-08T11:00:37;20.30;56.00
9820;DHT22;4949;48.482;9.206;2023-08-08T11:05:41;20.20;55.10
9820;DHT22;4949;48.482;9.206;2023-08-08T11:10:52;20.50;54.20
9820;DHT22;4949;48.482;9.206;2023-08-08T11:15:55;20.80;53.00
9820;DHT22;4949;48.482;9.206;2023-08-08T11:20:58;20.90;53.10
9820;DHT22;4949;48.482;9.206;2023-08-08T11:25:59;21.10;51.40
9820;DHT22;4949;48.482;9.206;2023-08-08T11:31:01;20.90;51.80
9820;DHT22;4949;48.482;9.206;2023-08-08T11:36:03;21.20;51.10
9820;DHT22;4949;48.482;9.206;2023-08-08T11:41:06;21.30;50.80
9820;DHT22;4949;48.482;9.206;2023-08-08T11:46:12;21.40;50.40
9820;DHT22;4949;48.482;9.206;2023-08-08T11:51:14;21.40;50.40
9820;DHT22;4949;48.482;9.206;2023-08-08T11:56:16;21.60;49.80
9820;DHT22;4949;48.482;9.206;2023-08-08T12:01:26;21.70;50.20
9820;DHT22;4949;48.482;9.206;2023-08-08T12:06:30;21.80;50.70
9820;DHT22;4949;48.482;9.206;2023-08-08T12:11:34;21.90;49.60
9820;DHT22;4949;48.482;9.206;2023-08-08T12:16:38;21.60;49.30
9820;DHT22;4949;48.482;9.206;2023-08-08T12:21:44;21.80;50.10
9820;DHT22;4949;48.482;9.206;2023-08-08T12:26:47;22.10;48.40
9820;DHT22;4949;48.482;9.206;2023-08-08T12:31:48;22.20;47.50
9820;DHT22;4949;48.482;9.206;2023-08-08T12:36:51;22.30;47.50
9820;DHT22;4949;48.482;9.206;2023-08-08T12:41:51;22.00;46.80
9820;DHT22;4949;48.482;9.206;2023-08-08T12:46:52;22.10;47.00
9820;DHT22;4949;48.482;9.206;2023-08-08T12:51:53;21.90;47.30
9820;DHT22;4949;48.482;9.206;2023-08-08T12:56:56;21.80;47.80
9820;DHT22;4949;48.482;9.206;2023-08-08T13:01:56;22.00;48.10
9820;DHT22;4949;48.482;9.206;2023-08-08T13:06:59;22.20;46.10
9820;DHT22;4949;48.482;9.206;2023-08-08T13:12:00;22.60;45.40
9820;DHT22;4949;48.482;9.206;2023-08-08T13:17:01;22.80;44.10
9820;DHT22;4949;48.482;9.206;2023-08-08T13:22:04;22.50;44.90
9820;DHT22;4949;48.482;9.206;2023-08-08T13:27:05;22.70;45.90
9820;DHT22;4949;48.482;9.206;2023-08-08T13:32:06;23.00;45.40
9820;DHT22;4949;48.482;9.206;2023-08-08T13:37:09;23.00;45.60
9820;DHT22;4949;48.482;9.206;2023-08-08T13:42:09;23.20;45.30
9820;DHT22;4949;48.482;9.206;2023-08-08T13:47:12;23.40;45.50
9820;DHT22;4949;48.482;9.206;2023-08-08T13:52:15;23.20;44.80
9820;DHT22;4949;48.482;9.206;2023-08-08T13:57:16;23.20;44.90
9820;DHT22;4949;48.482;9.206;2023-08-08T14:02:17;23.50;45.30
9820;DHT22;4949;48.482;9.206;2023-08-08T14:07:18;23.60;45.20
9820;DHT22;4949;48.482;9.206;2023-08-08T14:12:19;23.30;45.70
9820;DHT22;4949;48.482;9.206;2023-08-08T14:17:24;23.10;46.00
9820;DHT22;4949;48.482;9.206;2023-08-08T14:22:30;22.80;46.50
9820;DHT22;4949;48.482;9.206;2023-08-08T14:27:34;22.50;46.80
9820;DHT22;4949;48.482;9.206;2023-08-08T14:32:34;22.30;48.00
9820;DHT22;4949;48.482;9.206;2023-08-08T14:37:39;22.10;48.90
9820;DHT22;4949;48.482;9.206;2023-08-08T14:42:42;22.30;49.10
9820;DHT22;4949;48.482;9.206;2023-08-08T14:47:45;22.40;48.10
9820;DHT22;4949;48.482;9.206;2023-08-08T14:52:46;22.20;48.50
9820;DHT22;4949;48.482;9.206;2023-08-08T14:57:47;22.30;49.50
9820;DHT22;4949;48.482;9.206;2023-08-08T15:02:47;22.00;49.60
9820;DHT22;4949;48.482;9.206;2023-08-08T15:07:48;21.90;50.30
9820;DHT22;4949;48.482;9.206;2023-08-08T15:12:49;21.80;51.00
9820;DHT22;4949;48.482;9.206;2023-08-08T15:17:52;21.80;51.20
9820;DHT22;4949;48.482;9.206;2023-08-08T15:22:53;21.90;50.80
9820;DHT22;4949;48.482;9.206;2023-08-08T15:27:54;22.10;50.70
9820;DHT22;4949;48.482;9.206;2023-08-08T15:32:57;22.40;49.70
9820;DHT22;4949;48.482;9.206;2023-08-08T15:38:01;22.10;50.00
9820;DHT22;4949;48.482;9.206;2023-08-08T15:43:04;21.80;50.50
9820;DHT22;4949;48.482;9.206;2023-08-08T15:48:07;21.90;50.10
9820;DHT22;4949;48.482;9.206;2023-08-08T15:53:10;21.70;50.20
9820;DHT22;4949;48.482;9.206;2023-08-08T15:58:11;21.70;51.50
9820;DHT22;4949;48.482;9.206;2023-08-08T16:03:14;21.70;51.80
9820;DHT22;4949;48.482;9.206;2023-08-08T16:08:17;21.40;51.10
9820;DHT22;4949;48.482;9.206;2023-08-08T16:13:18;21.30;51.50
9820;DHT22;4949;48.482;9.206;2023-08-08T16:18:21;21.30;52.00
9820;DHT22;4949;48.482;9.206;2023-08-08T16:23:22;21.30;51.70
9820;DHT22;4949;48.482;9.206;2023-08-08T16:28:23;21.20;52.60
9820;DHT22;4949;48.482;9.206;2023-08-08T16:33:26;21.20;52.40
9820;DHT22;4949;48.482;9.206;2023-08-08T16:38:27;21.60;52.20
9820;DHT22;4949;48.482;9.206;2023-08-08T16:43:36;22.10;51.30
9820;DHT22;4949;48.482;9.206;2023-08-08T16:48:38;22.30;50.90
9820;DHT22;4949;48.482;9.206;2023-08-08T16:53:39;22.30;50.40
9820;DHT22;4949;48.482;9.206;2023-08-08T16:58:40;22.40;50.60
9820;DHT22;4949;48.482;9.206;2023-08-08T17:03:41;22.60;50.70
9820;DHT22;4949;48.482;9.206;2023-08-08T17:08:44;22.60;50.50
9820;DHT22;4949;48.482;9.206;2023-08-08T17:13:45;22.50;51.10
9820;DHT22;4949;48.482;9.206;2023-08-08T17:18:48;22.30;51.50
9820;DHT22;4949;48.482;9.206;2023-08-08T17:23:52;22.20;52.00
9820;DHT22;4949;48.482;9.206;2023-08-08T17:28:54;22.00;52.50
9820;DHT22;4949;48.482;9.206;2023-08-08T17:33:54;22.10;52.90
9820;DHT22;4949;48.482;9.206;2023-08-08T17:39:00;21.90;53.50
9820;DHT22;4949;48.482;9.206;2023-08-08T17:44:04;21.70;53.00
9820;DHT22;4949;48.482;9.206;2023-08-08T17:49:05;21.70;54.00
9820;DHT22;4949;48.482;9.206;2023-08-08T17:54:10;21.60;54.00
9820;DHT22;4949;48.482;9.206;2023-08-08T17:59:11;21.60;54.40
9820;DHT22;4949;48.482;9.206;2023-08-08T18:04:12;21.50;54.70
9820;DHT22;4949;48.482;9.206;2023-08-08T18:09:13;21.40;55.30
9820;DHT22;4949;48.482;9.206;2023-08-08T18:14:15;21.30;55.20
9820;DHT22;4949;48.482;9.206;2023-08-08T18:19:18;21.40;55.00
9820;DHT22;4949;48.482;9.206;2023-08-08T18:24:23;21.30;55.10
9820;DHT22;4949;48.482;9.206;2023-08-08T18:29:24;21.30;55.00
9820;DHT22;4949;48.482;9.206;2023-08-08T18:34:25;21.20;55.70
9820;DHT22;4949;48.482;9.206;2023-08-08T18:39:26;21.10;55.70
9820;DHT22;4949;48.482;9.206;2023-08-08T18:44:29;21.00;55.80
9820;DHT22;4949;48.482;9.206;2023-08-08T18:49:34;21.00;56.10
9820;DHT22;4949;48.482;9.206;2023-08-08T18:54:35;20.80;56.30
9820;DHT22;4949;48.482;9.206;2023-08-08T18:59:36;20.80;56.40
9820;DHT22;4949;48.482;9.206;2023-08-08T19:04:39;20.80;56.20
9820;DHT22;4949;48.482;9.206;2023-08-08T19:09:39;20.60;57.10
9820;DHT22;4949;48.482;9.206;2023-08-08T19:14:40;20.60;57.10
9820;DHT22;4949;48.482;9.206;2023-08-08T19:19:41;20.50;57.50
9820;DHT22;4949;48.482;9.206;2023-08-08T19:24:42;20.50;57.40
9820;DHT22;4949;48.482;9.206;2023-08-08T19:29:42;20.50;57.20
9820;DHT22;4949;48.482;9.206;2023-08-08T19:34:51;20.40;57.40
9820;DHT22;4949;48.482;9.206;2023-08-08T19:39:55;20.40;57.40
9820;DHT22;4949;48.482;9.206;2023-08-08T19:44:55;20.30;57.70
9820;DHT22;4949;48.482;9.206;2023-08-08T19:49:56;20.30;57.70
9820;DHT22;4949;48.482;9.206;2023-08-08T19:54:57;20.20;58.10
9820;DHT22;4949;48.482;9.206;2023-08-08T19:59:58;20.10;58.60
9820;DHT22;4949;48.482;9.206;2023-08-08T20:04:58;20.00;59.00
9820;DHT22;4949;48.482;9.206;2023-08-08T20:09:59;19.90;59.30
9820;DHT22;4949;48.482;9.206;2023-08-08T20:15:05;19.80;59.50
9820;DHT22;4949;48.482;9.206;2023-08-08T20:20:10;19.80;59.60
9820;DHT22;4949;48.482;9.206;2023-08-08T20:25:11;19.70;59.50
9820;DHT22;4949;48.482;9.206;2023-08-08T20:30:12;19.70;59.50
9820;DHT22;4949;48.482;9.206;2023-08-08T20:35:13;19.70;59.40
9820;DHT22;4949;48.482;9.206;2023-08-08T20:40:16;19.70;59.30
9820;DHT22;4949;48.482;9.206;2023-08-08T20:45:17;19.70;59.80
9820;DHT22;4949;48.482;9.206;2023-08-08T20:50:20;19.60;59.70
9820;DHT22;4949;48.482;9.206;2023-08-08T20:55:21;19.50;59.70
9820;DHT22;4949;48.482;9.206;2023-08-08T21:00:22;19.50;59.80
9820;DHT22;4949;48.482;9.206;2023-08-08T21:05:22;19.50;59.50
9820;DHT22;4949;48.482;9.206;2023-08-08T21:10:23;19.50;59.60
9820;DHT22;4949;48.482;9.206;2023-08-08T21:15:24;19.50;59.80
9820;DHT22;4949;48.482;9.206;2023-08-08T21:20:25;19.40;59.60
9820;DHT22;4949;48.482;9.206;2023-08-08T21:25:26;19.40;59.90
9820;DHT22;4949;48.482;9.206;2023-08-08T21:30:29;19.40;59.80
9820;DHT22;4949;48.482;9.206;2023-08-08T21:35:32;19.40;59.80
9820;DHT22;4949;48.482;9.206;2023-08-08T21:40:35;19.30;60.10
9820;DHT22;4949;48.482;9.206;2023-08-08T21:45:36;19.20;60.50
9820;DHT22;4949;48.482;9.206;2023-08-08T21:50:38;19.20;60.40
9820;DHT22;4949;48.482;9.206;2023-08-08T21:55:42;19.20;60.90
9820;DHT22;4949;48.482;9.206;2023-08-08T22:00:42;19.10;61.40
9820;DHT22;4949;48.482;9.206;2023-08-08T22:05:43;19.00;62.80
9820;DHT22;4949;48.482;9.206;2023-08-08T22:10:44;18.90;63.70
9820;DHT22;4949;48.482;9.206;2023-08-08T22:15:47;18.80;63.40
9820;DHT22;4949;48.482;9.206;2023-08-08T22:20:48;18.80;64.10
9820;DHT22;4949;48.482;9.206;2023-08-08T22:25:54;18.80;64.00
9820;DHT22;4949;48.482;9.206;2023-08-08T22:30:57;18.80;63.70
9820;DHT22;4949;48.482;9.206;2023-08-08T22:35:57;18.70;64.50
9820;DHT22;4949;48.482;9.206;2023-08-08T22:40:58;18.60;64.90
9820;DHT22;4949;48.482;9.206;2023-08-08T22:46:01;18.50;67.20
9820;DHT22;4949;48.482;9.206;2023-08-08T22:51:02;18.50;67.90
9820;DHT22;4949;48.482;9.206;2023-08-08T22:56:06;18.40;68.10
9820;DHT22;4949;48.482;9.206;2023-08-08T23:01:09;18.40;68.10
9820;DHT22;4949;48.482;9.206;2023-08-08T23:06:10;18.40;66.60
9820;DHT22;4949;48.482;9.206;2023-08-08T23:11:11;18.40;65.70
9820;DHT22;4949;48.482;9.206;2023-08-08T23:16:14;18.50;66.00
9820;DHT22;4949;48.482;9.206;2023-08-08T23:21:15;18.40;67.00
9820;DHT22;4949;48.482;9.206;2023-08-08T23:26:18;18.30;67.80
9820;DHT22;4949;48.482;9.206;2023-08-08T23:31:19;18.30;66.90
9820;DHT22;4949;48.482;9.206;2023-08-08T23:36:23;18.30;66.00
9820;DHT22;4949;48.482;9.206;2023-08-08T23:41:26;18.40;65.00
9820;DHT22;4949;48.482;9.206;2023-08-08T23:46:27;18.40;64.40
9820;DHT22;4949;48.482;9.206;2023-08-08T23:51:27;18.40;64.80
9820;DHT22;4949;48.482;9.206;2023-08-08T23:56:28;18.40;65.40
